Time;durP1;ratioP1;P1;durP2;ratioP2;P2;SDS_P1;SDS_P2;PMS_P1;PMS_P2;Temp;Humidity;BMP_temperature;BMP_pressure;BME280_temperature;BME280_humidity;BME280_pressure;Samples;Min_cycle;Max_cycle;Signal;HPM_P1;HPM_P2
2022/12/08 00:01:53;;;;;;;13.45;8.02;;;;;;;4.50;70.68;100324.88;4168889;28;20041;-76
2022/12/08 00:03:58;;;;;;;13.65;8.45;;;;;;;4.59;70.69;100332.06;4165982;28;20046;-76
2022/12/08 00:10:45;;;;;;;15.15;9.10;;;;;;;4.48;70.77;100322.25;4165534;28;20041;-76
2022/12/08 00:12:51;;;;;;;15.57;9.05;;;;;;;4.43;70.90;100328.06;4166094;28;20049;-76
2022/12/08 00:14:54;;;;;;;15.32;8.65;;;;;;;4.34;70.95;100326.03;4165326;28;20042;-76
2022/12/08 00:16:58;;;;;;;14.82;9.40;;;;;;;4.33;70.76;100322.53;4160846;28;20100;-76
2022/12/08 00:19:01;;;;;;;14.57;8.85;;;;;;;4.38;70.87;100322.75;4162385;28;20133;-76
2022/12/08 00:21:04;;;;;;;13.15;8.77;;;;;;;4.41;71.03;100314.22;4160840;28;20435;-77
2022/12/08 00:23:07;;;;;;;15.15;9.38;;;;;;;4.46;71.09;100317.88;4150685;28;20381;-75
2022/12/08 00:25:10;;;;;;;15.48;8.52;;;;;;;4.49;71.02;100307.69;4156468;28;20041;-75
2022/12/08 00:27:16;;;;;;;14.20;9.13;;;;;;;4.47;70.85;100305.06;4150555;28;20066;-76
2022/12/08 00:29:20;;;;;;;14.65;9.05;;;;;;;4.37;71.08;100298.69;4164796;28;20099;-76
2022/12/08 00:31:23;;;;;;;12.02;8.38;;;;;;;4.46;71.00;100303.28;4161049;28;20099;-75
2022/12/08 00:33:28;;;;;;;14.10;8.95;;;;;;;4.55;70.94;100303.63;4160477;28;20065;-76
2022/12/08 00:35:31;;;;;;;13.88;7.97;;;;;;;4.52;70.92;100292.34;4149514;28;20048;-76
2022/12/08 00:37:34;;;;;;;16.52;8.93;;;;;;;4.63;70.70;100291.03;4164861;28;20046;-76
2022/12/08 00:39:37;;;;;;;13.63;9.02;;;;;;;4.65;70.53;100278.22;4163316;28;20113;-77
2022/12/08 00:44:03;;;;;;;12.73;8.73;;;;;;;4.63;70.66;100290.13;4153026;28;20045;-77
2022/12/08 00:46:06;;;;;;;14.35;9.20;;;;;;;4.65;70.37;100291.09;4164059;28;20080;-77
2022/12/08 00:48:09;;;;;;;13.48;9.07;;;;;;;4.66;70.43;100285.13;4161319;28;20044;-77
2022/12/08 00:50:12;;;;;;;16.42;9.25;;;;;;;4.63;70.18;100285.88;4170413;28;20041;-77
2022/12/08 00:52:15;;;;;;;16.00;10.00;;;;;;;4.64;69.73;100286.75;4167389;28;20045;-77
2022/12/08 00:54:19;;;;;;;20.70;9.55;;;;;;;4.64;70.10;100291.91;4171585;28;20033;-77
2022/12/08 00:56:23;;;;;;;14.70;9.20;;;;;;;4.62;70.32;100286.69;4164665;28;20029;-77
2022/12/08 00:58:26;;;;;;;15.57;9.20;;;;;;;4.62;70.21;100281.56;4166925;28;20120;-77
2022/12/08 01:00:30;;;;;;;14.18;8.52;;;;;;;4.75;70.05;100285.44;4168460;28;20124;-77
2022/12/08 01:02:33;;;;;;;12.25;7.97;;;;;;;4.67;69.93;100282.59;4155156;28;20041;-77
2022/12/08 01:04:36;;;;;;;13.85;9.30;;;;;;;4.74;69.78;100293.97;4150737;28;20092;-77
2022/12/08 01:06:42;;;;;;;11.23;7.03;;;;;;;4.69;69.72;100290.38;4166823;28;20048;-77
2022/12/08 01:08:45;;;;;;;14.85;8.90;;;;;;;4.59;69.92;100293.44;4167054;28;20038;-77
2022/12/08 01:10:47;;;;;;;12.77;8.23;;;;;;;4.58;70.17;100291.69;4166511;28;20056;-77
2022/12/08 01:12:50;;;;;;;13.45;8.52;;;;;;;4.68;70.13;100288.63;4154001;28;20046;-77
2022/12/08 01:14:53;;;;;;;13.25;8.90;;;;;;;4.64;70.27;100287.63;4164738;28;20446;-78
2022/12/08 01:17:03;;;;;;;12.10;7.95;;;;;;;4.62;70.62;100284.13;4161225;28;20049;-77
2022/12/08 01:19:06;;;;;;;13.05;9.00;;;;;;;4.62;71.01;100284.13;4155481;28;20504;-77
2022/12/08 01:21:09;;;;;;;13.57;8.40;;;;;;;4.65;70.84;100283.38;4151217;28;20038;-77
2022/12/08 01:23:12;;;;;;;11.77;7.75;;;;;;;4.62;71.21;100283.25;4165264;28;20044;-77
2022/12/08 01:25:15;;;;;;;12.40;7.55;;;;;;;4.67;71.04;100279.13;4151990;28;20092;-77
2022/12/08 01:27:21;;;;;;;14.23;8.57;;;;;;;4.67;71.45;100276.56;4163542;28;20333;-77
2022/12/08 01:29:23;;;;;;;11.93;8.27;;;;;;;4.72;70.93;100270.75;4155522;28;20488;-77
2022/12/08 01:31:26;;;;;;;13.80;9.05;;;;;;;4.75;71.53;100275.13;4151435;28;20451;-77
2022/12/08 01:33:31;;;;;;;14.75;9.25;;;;;;;4.78;70.89;100262.34;4162030;28;20053;-76
2022/12/08 01:35:34;;;;;;;;;;;;;;;4.71;70.76;100268.13;4151050;28;20034;-77
2022/12/08 01:37:37;;;;;;;12.20;8.57;;;;;;;4.60;71.12;100267.75;4165391;28;20111;-77
2022/12/08 01:39:40;;;;;;;13.63;9.55;;;;;;;4.64;71.10;100266.16;4162418;28;20037;-77
2022/12/08 01:41:44;;;;;;;17.83;9.50;;;;;;;4.62;71.19;100263.53;4164641;28;20077;-77
2022/12/08 01:43:58;;;;;;;14.43;8.75;;;;;;;4.66;70.85;100269.69;4162884;28;20060;-77
2022/12/08 01:46:01;;;;;;;14.50;7.88;;;;;;;4.61;70.54;100264.34;4151168;28;20054;-77
2022/12/08 01:48:08;;;;;;;15.55;9.80;;;;;;;4.56;70.76;100250.44;4154990;28;20456;-76
2022/12/08 01:50:15;;;;;;;12.00;7.50;;;;;;;4.57;70.94;100256.47;4167520;28;20049;-77
2022/12/08 01:52:23;;;;;;;18.08;8.25;;;;;;;4.64;71.16;100258.44;4166695;28;20034;-77
2022/12/08 01:54:29;;;;;;;12.93;8.52;;;;;;;4.47;70.68;100263.88;4156753;28;20038;-76
2022/12/08 01:56:37;;;;;;;13.00;8.73;;;;;;;4.40;71.13;100254.16;4157492;28;20045;-76
2022/12/08 01:58:45;;;;;;;15.45;8.80;;;;;;;4.35;70.94;100253.13;4156606;28;20042;-76
2022/12/08 02:00:49;;;;;;;14.60;8.70;;;;;;;4.43;70.53;100256.00;4167087;28;20072;-76
2022/12/08 02:02:56;;;;;;;13.77;7.82;;;;;;;4.48;70.34;100249.28;4163082;28;20065;-76
2022/12/08 02:05:00;;;;;;;17.50;9.10;;;;;;;4.45;70.62;100244.91;4160732;28;20034;-77
2022/12/08 02:07:06;;;;;;;15.48;8.10;;;;;;;4.50;70.79;100245.97;4163435;28;20124;-77
2022/12/08 02:09:10;;;;;;;16.30;7.93;;;;;;;4.41;70.69;100237.91;4164238;28;20072;-76
2022/12/08 02:11:13;;;;;;;12.18;8.00;;;;;;;4.41;70.28;100243.06;4169634;28;20037;-76
2022/12/08 02:13:18;;;;;;;14.30;7.90;;;;;;;4.42;70.23;100243.94;4167876;28;20037;-76
2022/12/08 02:15:30;;;;;;;13.00;8.38;;;;;;;4.36;70.39;100239.44;4153367;28;20085;-76
2022/12/08 02:17:49;;;;;;;11.80;7.00;;;;;;;4.28;70.74;100235.69;4170615;28;20049;-76
2022/12/08 02:20:23;;;;;;;13.00;8.60;;;;;;;4.38;70.78;100240.38;4155901;28;20038;-77
2022/12/08 02:22:36;;;;;;;17.95;8.68;;;;;;;4.38;70.77;100240.38;4162554;28;20466;-76
2022/12/08 02:24:47;;;;;;;11.77;7.45;;;;;;;4.42;69.98;100224.22;4166830;28;20060;-76
2022/12/08 02:27:22;;;;;;;13.85;7.60;;;;;;;4.47;70.24;100232.13;4174993;28;20049;-77
2022/12/08 02:29:51;;;;;;;12.50;7.55;;;;;;;4.42;70.21;100239.66;4170319;28;20041;-77
2022/12/08 02:32:05;;;;;;;14.27;7.75;;;;;;;4.37;70.14;100231.78;4171585;28;20041;-77
2022/12/08 02:34:23;;;;;;;13.50;7.07;;;;;;;4.35;70.35;100237.69;4184586;28;20065;-77
2022/12/08 02:36:32;;;;;;;13.60;8.13;;;;;;;4.19;70.19;100237.16;4173165;28;20057;-77
2022/12/08 02:38:45;;;;;;;11.63;7.20;;;;;;;4.26;70.19;100234.78;4168703;28;20041;-77
2022/12/08 02:41:00;;;;;;;11.88;7.93;;;;;;;4.34;70.67;100231.66;4178383;28;20037;-77
2022/12/08 02:43:09;;;;;;;12.93;8.18;;;;;;;4.33;70.85;100229.03;4176512;28;20041;-77
2022/12/08 02:45:17;;;;;;;15.57;8.95;;;;;;;4.23;70.44;100226.97;4176620;28;20045;-77
2022/12/08 02:47:23;;;;;;;12.70;8.65;;;;;;;4.25;70.72;100223.63;4176184;28;20049;-77
2022/12/08 02:49:30;;;;;;;17.85;10.65;;;;;;;4.36;71.05;100224.00;4171996;28;20045;-77
2022/12/08 02:51:34;;;;;;;12.00;7.65;;;;;;;4.38;70.91;100224.94;4159342;28;20069;-78
2022/12/08 02:53:37;;;;;;;15.60;9.23;;;;;;;4.40;70.99;100223.28;4163988;28;20132;-77
2022/12/08 02:55:50;;;;;;;13.30;9.30;;;;;;;4.40;70.84;100223.28;4150683;28;20048;-76
2022/12/08 02:58:16;;;;;;;12.90;8.77;;;;;;;4.34;70.94;100220.50;4150833;28;20046;-77
2022/12/08 03:00:21;;;;;;;15.30;9.00;;;;;;;4.36;71.27;100218.84;4166073;28;20045;-76
2022/12/08 03:02:41;;;;;;;14.98;9.60;;;;;;;4.39;70.81;100208.66;4169136;28;20034;-76
2022/12/08 03:04:55;;;;;;;13.80;9.00;;;;;;;4.42;70.52;100216.47;4165226;28;20046;-77
2022/12/08 03:07:04;;;;;;;14.32;9.38;;;;;;;4.40;70.69;100215.56;4152687;28;20106;-77
2022/12/08 03:09:14;;;;;;;13.05;8.60;;;;;;;4.43;70.55;100209.66;4153739;28;20072;-77
2022/12/08 03:11:22;;;;;;;15.45;8.95;;;;;;;4.39;70.90;100203.50;4161489;28;20211;-77
2022/12/08 03:13:32;;;;;;;14.82;8.68;;;;;;;4.37;70.83;100208.59;4167538;28;20037;-76
2022/12/08 03:15:36;;;;;;;15.07;9.60;;;;;;;4.36;71.20;100201.69;4170109;28;20097;-77
2022/12/08 03:17:43;;;;;;;18.73;8.98;;;;;;;4.39;71.16;100203.50;4171547;28;20052;-77
2022/12/08 03:19:48;;;;;;;14.55;10.13;;;;;;;4.36;70.96;100204.28;4169821;28;20525;-77
2022/12/08 03:21:53;;;;;;;15.88;10.05;;;;;;;4.40;70.72;100196.69;4162522;28;20038;-77
2022/12/08 03:23:57;;;;;;;15.10;8.55;;;;;;;4.38;70.95;100196.63;4162993;28;20396;-76
2022/12/08 03:26:08;;;;;;;18.13;10.63;;;;;;;4.43;71.00;100200.22;4154471;28;20108;-77
2022/12/08 03:28:11;;;;;;;15.90;8.98;;;;;;;4.38;70.90;100201.78;4154417;28;20698;-77
2022/12/08 03:30:15;;;;;;;14.43;9.13;;;;;;;4.40;71.07;100197.56;4168342;28;20041;-76
2022/12/08 03:32:24;;;;;;;13.27;9.02;;;;;;;4.36;71.12;100191.41;4169112;28;20507;-76
2022/12/08 03:34:29;;;;;;;16.20;9.40;;;;;;;4.32;71.41;100197.28;4158394;28;20041;-77
2022/12/08 03:36:33;;;;;;;15.43;9.45;;;;;;;4.36;71.37;100187.97;4164990;28;20042;-76
2022/12/08 03:38:38;;;;;;;15.23;9.48;;;;;;;4.34;71.23;100187.91;4172986;28;20083;-77
2022/12/08 03:40:42;;;;;;;18.13;9.75;;;;;;;4.33;71.39;100193.00;4175031;28;20133;-76
2022/12/08 03:42:45;;;;;;;13.65;8.95;;;;;;;4.30;71.38;100186.06;4170029;28;20408;-77
2022/12/08 03:44:48;;;;;;;14.73;7.93;;;;;;;4.31;71.52;100186.94;4163252;28;20046;-76
2022/12/08 03:46:51;;;;;;;16.02;9.38;;;;;;;4.30;71.79;100186.06;4162550;28;20066;-77
2022/12/08 03:48:55;;;;;;;12.60;7.65;;;;;;;4.32;71.80;100183.53;4163231;28;20042;-77
2022/12/08 03:50:57;;;;;;;15.90;9.63;;;;;;;4.36;71.83;100172.53;4159099;28;20431;-77
2022/12/08 03:53:02;;;;;;;14.85;8.38;;;;;;;4.36;71.57;100173.38;4163198;28;20452;-77
2022/12/08 03:55:05;;;;;;;11.95;8.10;;;;;;;4.34;71.69;100169.03;4166676;28;20076;-76
2022/12/08 03:57:08;;;;;;;13.00;7.80;;;;;;;4.34;71.78;100171.59;4152785;28;20045;-76
2022/12/08 03:59:11;;;;;;;16.80;8.73;;;;;;;4.31;71.74;100168.94;4157758;28;20153;-76
2022/12/08 04:01:14;;;;;;;12.82;8.48;;;;;;;4.33;71.75;100167.28;4166403;28;20030;-76
2022/12/08 04:03:17;;;;;;;14.00;8.35;;;;;;;4.31;71.87;100153.50;4163618;28;20037;-77
2022/12/08 04:05:20;;;;;;;16.48;9.25;;;;;;;4.32;72.12;100161.25;4170404;28;20042;-77
2022/12/08 04:07:23;;;;;;;14.07;7.60;;;;;;;4.32;72.00;100150.06;4169982;28;20423;-76
2022/12/08 04:09:27;;;;;;;12.70;7.85;;;;;;;4.27;71.93;100149.06;4155565;28;20046;-77
2022/12/08 04:11:32;;;;;;;14.73;9.00;;;;;;;4.30;72.09;100149.16;4152921;28;20088;-76
2022/12/08 04:13:36;;;;;;;15.85;9.90;;;;;;;4.32;72.17;100139.78;4167480;28;20116;-76
2022/12/08 04:15:39;;;;;;;16.58;8.98;;;;;;;4.33;71.97;100146.69;4170179;28;20053;-76
2022/12/08 04:17:42;;;;;;;15.52;8.38;;;;;;;4.34;71.99;100138.16;4171292;28;20046;-76
2022/12/08 04:19:44;;;;;;;14.65;9.43;;;;;;;4.32;71.87;100143.25;4170201;28;20111;-77
2022/12/08 04:21:48;;;;;;;12.77;8.57;;;;;;;4.34;71.82;100139.03;4158303;28;20038;-76
2022/12/08 04:23:51;;;;;;;13.82;9.23;;;;;;;4.38;71.88;100147.75;4161763;28;20037;-77
2022/12/08 04:26:02;;;;;;;15.13;9.02;;;;;;;4.44;71.52;100142.78;4172439;28;20480;-77
2022/12/08 04:28:06;;;;;;;16.55;9.52;;;;;;;4.45;71.40;100143.66;4167321;28;20033;-77
2022/12/08 04:30:09;;;;;;;16.15;8.57;;;;;;;4.40;71.28;100140.94;4155138;28;20046;-77
2022/12/08 04:32:12;;;;;;;16.50;10.00;;;;;;;4.41;71.31;100134.97;4168416;28;20480;-76
2022/12/08 04:34:15;;;;;;;14.68;8.45;;;;;;;4.33;71.59;100138.97;4162295;28;20057;-76
2022/12/08 04:36:18;;;;;;;13.10;8.60;;;;;;;4.32;71.60;100130.38;4159681;28;20128;-76
2022/12/08 04:38:21;;;;;;;17.30;9.63;;;;;;;4.33;71.93;100133.81;4166903;28;20041;-77
2022/12/08 04:40:24;;;;;;;14.95;9.60;;;;;;;4.31;72.02;100131.19;4163008;28;20069;-77
2022/12/08 04:42:28;;;;;;;11.70;8.32;;;;;;;4.28;72.11;100132.78;4161303;28;20033;-76
2022/12/08 04:44:31;;;;;;;15.82;9.32;;;;;;;4.30;72.05;100126.00;4161171;28;20048;-77
2022/12/08 04:46:34;;;;;;;13.57;8.63;;;;;;;4.30;72.14;100131.16;4164280;28;20095;-78
2022/12/08 04:48:44;;;;;;;14.52;9.38;;;;;;;4.30;72.43;100126.88;4159283;28;20080;-78
2022/12/08 04:50:47;;;;;;;14.38;9.40;;;;;;;4.47;71.57;100116.28;4165356;28;20034;-79
2022/12/08 04:52:50;;;;;;;14.25;8.75;;;;;;;4.37;71.72;100122.81;4169183;28;20045;-80
2022/12/08 04:54:53;;;;;;;14.30;9.52;;;;;;;4.33;71.98;100120.97;4157984;28;20038;-74
2022/12/08 04:56:56;;;;;;;13.57;8.45;;;;;;;4.31;71.61;100128.63;4161553;28;20045;-73
2022/12/08 04:59:00;;;;;;;14.05;8.60;;;;;;;4.30;71.86;100128.56;4150850;28;20038;-73
2022/12/08 05:01:03;;;;;;;16.13;9.30;;;;;;;4.40;71.34;100125.50;4152641;28;20034;-72
2022/12/08 05:03:06;;;;;;;17.85;9.25;;;;;;;4.38;71.01;100122.00;4164454;28;20061;-72
2022/12/08 05:05:09;;;;;;;14.98;9.20;;;;;;;4.25;71.41;100125.84;4149536;28;20045;-72
2022/12/08 05:07:12;;;;;;;13.68;8.95;;;;;;;4.25;71.59;100130.09;4160813;28;20045;-72
2022/12/08 05:09:15;;;;;;;12.85;8.23;;;;;;;4.30;71.21;100126.00;4164882;28;20038;-72
2022/12/08 05:11:18;;;;;;;14.18;9.18;;;;;;;4.19;71.66;100134.22;4151638;28;20070;-72
2022/12/08 05:13:21;;;;;;;14.77;9.77;;;;;;;4.10;71.64;100130.44;4161274;28;20033;-72
2022/12/08 05:15:25;;;;;;;14.00;8.65;;;;;;;4.13;71.77;100122.84;4163672;28;20041;-72
2022/12/08 05:17:28;;;;;;;15.27;9.77;;;;;;;4.15;71.81;100131.50;4155108;28;20088;-71
2022/12/08 05:19:31;;;;;;;14.18;8.73;;;;;;;4.09;71.79;100129.59;4149270;28;20104;-72
2022/12/08 05:21:33;;;;;;;14.13;8.30;;;;;;;4.13;72.16;100127.97;4161220;28;20111;-72
2022/12/08 05:23:36;;;;;;;15.95;8.50;;;;;;;4.20;72.17;100124.81;4164110;28;20045;-71
2022/12/08 05:25:39;;;;;;;16.13;9.27;;;;;;;4.22;72.06;100124.84;4151573;28;20049;-72
2022/12/08 05:27:42;;;;;;;17.02;8.88;;;;;;;4.11;71.92;100120.22;4156611;28;20037;-75
2022/12/08 05:29:46;;;;;;;12.52;8.05;;;;;;;4.07;72.19;100123.50;4163315;28;20551;-75
2022/12/08 05:31:51;;;;;;;13.77;8.68;;;;;;;4.12;72.16;100123.69;4156829;28;20045;-76
2022/12/08 05:33:54;;;;;;;16.63;8.93;;;;;;;4.07;72.00;100115.78;4163211;28;20064;-76
2022/12/08 05:36:04;;;;;;;12.82;7.93;;;;;;;4.02;71.81;100119.91;4146584;28;20065;-74
2022/12/08 05:38:07;;;;;;;12.25;7.63;;;;;;;4.11;71.73;100121.91;4164109;28;20099;-74
2022/12/08 05:40:10;;;;;;;13.82;8.98;;;;;;;4.17;71.81;100120.41;4179532;28;20033;-73
2022/12/08 05:42:13;;;;;;;12.00;7.30;;;;;;;4.12;71.33;100118.53;4164400;28;20104;-73
2022/12/08 05:44:16;;;;;;;13.25;8.35;;;;;;;4.15;71.39;100116.06;4163903;28;20132;-74
2022/12/08 05:46:18;;;;;;;13.00;8.40;;;;;;;4.08;71.60;100114.97;4164293;28;20095;-73
2022/12/08 05:48:23;;;;;;;10.35;6.85;;;;;;;3.97;71.97;100121.41;4164274;28;20038;-74
2022/12/08 05:50:25;;;;;;;13.45;8.20;;;;;;;3.89;71.75;100115.16;4163439;28;20380;-74
2022/12/08 05:52:30;;;;;;;13.50;9.10;;;;;;;3.95;71.90;100113.66;4163161;28;20077;-74
2022/12/08 05:54:32;;;;;;;13.15;8.02;;;;;;;4.00;72.08;100122.44;4146345;28;20046;-74
2022/12/08 05:56:35;;;;;;;14.23;9.90;;;;;;;4.02;72.31;100110.47;4164203;28;20103;-73
2022/12/08 05:58:38;;;;;;;16.77;9.43;;;;;;;4.06;72.05;100110.59;4164275;28;20041;-74
2022/12/08 06:00:42;;;;;;;12.07;7.95;;;;;;;3.97;71.46;100111.13;4154235;28;20037;-74
2022/12/08 06:02:45;;;;;;;15.10;8.82;;;;;;;3.95;71.74;100112.78;4146590;28;20052;-74
2022/12/08 06:04:49;;;;;;;12.55;8.35;;;;;;;3.94;71.37;100113.59;4147370;28;20041;-74
2022/12/08 06:06:52;;;;;;;14.40;9.13;;;;;;;3.89;71.58;100110.88;4148202;28;20041;-74
2022/12/08 06:08:55;;;;;;;14.50;9.40;;;;;;;3.89;71.82;100107.44;4147695;28;20129;-74
2022/12/08 06:10:58;;;;;;;14.70;8.85;;;;;;;3.84;72.35;100115.84;4147750;28;20045;-73
2022/12/08 06:13:01;;;;;;;18.73;10.82;;;;;;;3.88;71.91;100111.69;4146593;28;20046;-73
2022/12/08 06:15:04;;;;;;;15.55;9.57;;;;;;;3.94;72.01;100116.19;4147456;28;20085;-73
2022/12/08 06:17:07;;;;;;;14.57;8.80;;;;;;;3.89;71.78;100113.44;4147684;28;20042;-74
2022/12/08 06:19:10;;;;;;;12.77;9.02;;;;;;;3.83;72.19;100119.25;4147776;28;20121;-74
2022/12/08 06:21:16;;;;;;;14.77;8.55;;;;;;;3.87;71.93;100114.22;4146410;28;20443;-74
2022/12/08 06:23:19;;;;;;;15.60;9.57;;;;;;;3.75;71.61;100118.13;4146677;28;20491;-73
2022/12/08 06:25:22;;;;;;;13.73;8.88;;;;;;;3.75;71.89;100120.69;4130060;28;20578;-73
2022/12/08 06:27:25;;;;;;;13.93;8.13;;;;;;;3.69;72.42;100123.00;4147617;28;20041;-73
2022/12/08 06:29:28;;;;;;;14.27;8.15;;;;;;;3.66;72.03;100115.19;4146459;28;20038;-73
2022/12/08 06:31:30;;;;;;;14.20;9.13;;;;;;;3.72;72.36;100119.69;4147405;28;20033;-73
2022/12/08 06:33:33;;;;;;;15.63;9.93;;;;;;;3.81;72.12;100114.84;4147291;28;20065;-73
2022/12/08 06:35:37;;;;;;;14.85;8.48;;;;;;;3.89;71.95;100113.44;4147687;28;20038;-73
2022/12/08 06:37:41;;;;;;;12.35;7.75;;;;;;;3.95;72.05;100107.66;4146787;28;20042;-74
2022/12/08 06:39:44;;;;;;;14.02;8.57;;;;;;;3.96;72.17;100115.41;4162466;28;20057;-74
2022/12/08 06:44:07;;;;;;;15.80;8.65;;;;;;;3.87;71.93;100116.78;4163512;28;20107;-74
2022/12/08 06:46:12;;;;;;;13.63;7.80;;;;;;;3.76;71.82;100114.69;4146045;28;20042;-73
2022/12/08 06:48:15;;;;;;;13.57;8.40;;;;;;;3.74;72.04;100116.34;4166649;28;20061;-72
2022/12/08 06:50:17;;;;;;;15.82;8.75;;;;;;;3.86;72.34;100115.03;4167009;28;20221;-72
2022/12/08 06:52:20;;;;;;;13.38;8.55;;;;;;;3.92;72.21;100118.69;4165795;28;20091;-73
2022/12/08 06:54:25;;;;;;;11.63;7.78;;;;;;;4.03;71.80;100119.09;4166714;28;20064;-72
2022/12/08 06:56:28;;;;;;;14.25;8.05;;;;;;;3.97;71.98;100119.75;4167119;28;20041;-74
2022/12/08 06:58:32;;;;;;;13.73;8.43;;;;;;;3.94;71.80;100121.31;4165377;28;20041;-73
2022/12/08 07:00:35;;;;;;;16.85;9.13;;;;;;;3.95;71.94;100123.06;4149005;28;20045;-73
2022/12/08 07:02:38;;;;;;;14.63;8.05;;;;;;;3.89;71.87;100117.72;4166660;28;20091;-72
2022/12/08 07:04:41;;;;;;;12.98;8.07;;;;;;;3.89;72.09;100115.16;4166324;28;20045;-73
2022/12/08 07:06:44;;;;;;;15.13;8.98;;;;;;;3.94;71.74;100113.59;4166757;28;20381;-73
2022/12/08 07:08:47;;;;;;;13.68;7.53;;;;;;;3.94;71.72;100111.94;4166765;28;20450;-72
2022/12/08 07:10:51;;;;;;;12.88;7.80;;;;;;;3.97;72.00;100116.28;4166685;28;20038;-73
2022/12/08 07:12:54;;;;;;;12.30;7.88;;;;;;;3.92;72.22;100122.97;4165472;28;20045;-72
2022/12/08 07:14:57;;;;;;;13.27;8.27;;;;;;;4.01;71.84;100121.56;4156064;28;20042;-72
2022/12/08 07:17:00;;;;;;;11.23;7.38;;;;;;;4.07;71.60;100123.50;4150453;28;20034;-73
2022/12/08 07:19:03;;;;;;;17.58;7.60;;;;;;;4.09;71.92;100126.13;4149011;28;20042;-72
2022/12/08 07:21:08;;;;;;;16.65;7.88;;;;;;;4.11;71.68;100124.50;4150354;28;20475;-73
2022/12/08 07:23:11;;;;;;;13.52;6.90;;;;;;;4.10;71.84;100125.31;4148835;28;20523;-73
2022/12/08 07:25:14;;;;;;;12.68;7.78;;;;;;;4.19;71.39;100126.50;4150033;28;20046;-72
2022/12/08 07:27:18;;;;;;;13.98;7.80;;;;;;;4.15;71.75;100122.06;4150053;28;20041;-72
2022/12/08 07:29:21;;;;;;;11.90;6.75;;;;;;;4.01;71.81;100120.72;4148829;28;20049;-73
2022/12/08 07:31:28;;;;;;;11.90;7.35;;;;;;;4.08;71.94;100114.09;4165049;28;20049;-73
2022/12/08 07:33:31;;;;;;;15.00;7.25;;;;;;;4.15;71.53;100111.78;4152483;28;20038;-72
2022/12/08 07:35:34;;;;;;;12.20;7.63;;;;;;;4.17;71.62;100116.97;4158095;28;20041;-73
2022/12/08 07:37:37;;;;;;;11.45;6.75;;;;;;;4.15;71.75;100114.34;4162603;28;20044;-72
2022/12/08 07:39:40;;;;;;;12.07;7.45;;;;;;;4.15;71.85;100116.94;4150362;28;20038;-73
2022/12/08 07:41:43;;;;;;;13.65;7.97;;;;;;;4.07;71.77;100118.34;4157074;28;20084;-73
2022/12/08 07:43:48;;;;;;;11.70;6.50;;;;;;;4.08;71.48;100119.25;4164319;28;20069;-73
2022/12/08 07:45:51;;;;;;;12.63;7.25;;;;;;;3.87;71.59;100115.09;4161316;28;20450;-72
2022/12/08 07:47:54;;;;;;;12.07;7.68;;;;;;;3.82;72.04;100109.75;4164263;28;20041;-73
2022/12/08 07:49:56;;;;;;;11.43;6.75;;;;;;;3.76;72.18;100106.97;4150848;28;20092;-73
2022/12/08 07:51:59;;;;;;;13.90;7.95;;;;;;;3.84;72.16;100104.69;4166091;28;20416;-73
2022/12/08 07:54:02;;;;;;;11.65;7.80;;;;;;;3.91;72.26;100110.94;4154701;28;20492;-72
2022/12/08 07:56:06;;;;;;;11.30;6.68;;;;;;;3.91;72.16;100106.66;4163645;28;20041;-73
2022/12/08 07:58:09;;;;;;;12.23;8.15;;;;;;;3.92;71.77;100102.41;4157898;28;20052;-73
2022/12/08 08:00:15;;;;;;;14.45;7.55;;;;;;;3.94;72.25;100111.94;4162911;28;20037;-72
2022/12/08 08:02:18;;;;;;;10.15;6.85;;;;;;;3.93;71.89;100109.28;4159918;28;20514;-73
2022/12/08 08:04:27;;;;;;;11.52;7.55;;;;;;;3.94;72.25;100111.94;4161995;28;20095;-73
2022/12/08 08:06:31;;;;;;;12.05;7.03;;;;;;;3.86;72.21;100102.19;4161815;28;20033;-72
2022/12/08 08:08:34;;;;;;;10.80;7.18;;;;;;;3.85;71.60;100111.59;4156574;28;20136;-73
2022/12/08 08:10:36;;;;;;;13.25;7.13;;;;;;;3.76;72.32;100114.69;4156510;28;20517;-73
2022/12/08 08:12:39;;;;;;;14.85;7.72;;;;;;;3.67;72.52;100111.81;4155851;28;20475;-72
2022/12/08 08:14:42;;;;;;;12.02;7.68;;;;;;;3.89;72.00;100115.16;4159246;28;20038;-73
2022/12/08 08:16:47;;;;;;;15.50;7.63;;;;;;;3.94;71.88;100116.19;4164291;28;20041;-73
2022/12/08 08:18:51;;;;;;;12.70;7.88;;;;;;;3.91;71.54;100116.06;4165568;28;20041;-73
2022/12/08 08:20:54;;;;;;;12.80;7.27;;;;;;;3.94;71.55;100109.34;4164528;28;20038;-73
2022/12/08 08:22:56;;;;;;;11.75;7.22;;;;;;;3.95;71.54;100111.09;4163477;28;20295;-73
2022/12/08 08:24:59;;;;;;;14.00;6.90;;;;;;;3.88;71.81;100109.13;4148010;28;20041;-73
2022/12/08 08:27:02;;;;;;;14.35;8.32;;;;;;;3.98;71.63;100112.91;4165446;28;20093;-73
2022/12/08 08:29:05;;;;;;;14.02;8.07;;;;;;;4.15;71.35;100106.63;4164265;28;20055;-73
2022/12/08 08:31:08;;;;;;;14.32;8.50;;;;;;;4.09;71.68;100111.59;4164032;28;20041;-73
2022/12/08 08:33:13;;;;;;;13.50;7.97;;;;;;;4.08;71.75;100108.97;4149077;28;20066;-72
2022/12/08 08:35:16;;;;;;;13.52;8.70;;;;;;;4.09;71.46;100114.16;4160033;28;20037;-73
2022/12/08 08:37:19;;;;;;;14.70;8.52;;;;;;;4.09;71.33;100116.72;4164025;28;20041;-72
2022/12/08 08:39:22;;;;;;;16.42;8.10;;;;;;;4.18;71.46;100121.31;4163815;28;20037;-72
2022/12/08 08:41:25;;;;;;;14.10;7.68;;;;;;;4.03;71.43;100119.09;4165288;28;20033;-73
2022/12/08 08:43:30;;;;;;;15.52;8.70;;;;;;;4.11;71.55;100120.22;4164848;28;20048;-72
2022/12/08 08:45:39;;;;;;;15.70;9.02;;;;;;;4.20;71.65;100114.50;4153605;28;20063;-72
2022/12/08 08:47:42;;;;;;;13.20;6.75;;;;;;;4.23;71.75;100114.63;4148814;28;20034;-73
2022/12/08 08:49:47;;;;;;;13.32;8.43;;;;;;;4.25;71.59;100112.09;4163265;28;20048;-72
2022/12/08 08:51:49;;;;;;;15.88;7.22;;;;;;;4.26;71.16;100116.41;4163873;28;20033;-72
2022/12/08 08:53:52;;;;;;;14.20;8.73;;;;;;;4.31;71.40;100114.91;4162320;28;20585;-72
2022/12/08 08:55:55;;;;;;;15.48;8.65;;;;;;;4.43;71.36;100115.28;4162585;28;20558;-73
2022/12/08 08:57:58;;;;;;;15.35;9.07;;;;;;;4.35;71.37;100103.84;4155259;28;20434;-72
2022/12/08 09:00:01;;;;;;;18.05;9.35;;;;;;;4.36;71.38;100106.47;4162631;28;20045;-73
2022/12/08 09:02:04;;;;;;;17.27;8.60;;;;;;;4.42;71.49;100100.66;4164859;28;20073;-73
2022/12/08 09:04:07;;;;;;;15.63;9.23;;;;;;;4.50;71.20;100095.78;4154949;28;20041;-72
2022/12/08 09:06:11;;;;;;;13.25;8.88;;;;;;;4.58;71.26;100102.03;4159370;28;20038;-73
2022/12/08 09:08:14;;;;;;;16.60;9.73;;;;;;;4.63;71.09;100104.75;4154324;28;20045;-72
2022/12/08 09:10:17;;;;;;;15.98;9.07;;;;;;;4.64;70.93;100101.38;4159613;28;20103;-72
2022/12/08 09:12:21;;;;;;;13.90;8.77;;;;;;;4.69;70.65;100105.00;4155543;28;20414;-72
2022/12/08 09:14:24;;;;;;;17.58;10.15;;;;;;;4.88;70.20;100102.16;4160193;28;20048;-73
2022/12/08 09:16:27;;;;;;;15.05;9.65;;;;;;;4.79;70.58;100107.03;4162633;28;20400;-72
2022/12/08 09:18:30;;;;;;;16.00;9.07;;;;;;;4.76;70.68;100104.34;4162760;28;20030;-73
2022/12/08 09:20:33;;;;;;;18.33;10.98;;;;;;;4.81;70.26;100100.22;4163033;28;20041;-73
2022/12/08 09:22:37;;;;;;;14.27;8.95;;;;;;;4.78;70.35;100105.28;4164563;28;20045;-73
2022/12/08 09:24:40;;;;;;;15.07;8.57;;;;;;;4.74;70.32;100098.25;4162941;28;20041;-73
2022/12/08 09:26:44;;;;;;;15.77;9.88;;;;;;;4.75;70.43;100096.59;4156145;28;20504;-72
2022/12/08 09:28:47;;;;;;;15.95;10.23;;;;;;;4.76;70.21;100101.78;4162150;28;20041;-72
2022/12/08 09:30:51;;;;;;;17.67;10.55;;;;;;;4.83;69.92;100088.28;4155857;28;20124;-72
2022/12/08 09:32:54;;;;;;;19.42;10.80;;;;;;;4.80;70.16;100088.16;4159018;28;20515;-73
2022/12/08 09:34:58;;;;;;;15.87;10.10;;;;;;;4.73;70.21;100091.34;4164129;28;20044;-73
2022/12/08 09:37:01;;;;;;;19.45;10.55;;;;;;;4.82;70.29;100091.66;4154442;28;20038;-72
2022/12/08 09:39:05;;;;;;;19.02;10.80;;;;;;;4.78;70.21;100082.09;4161150;28;20396;-72
2022/12/08 09:41:16;;;;;;;15.48;8.60;;;;;;;4.78;70.00;100087.25;4162059;28;20144;-73
2022/12/08 09:43:42;;;;;;;16.67;9.10;;;;;;;4.66;70.05;100084.28;4159269;28;20541;-72
2022/12/08 09:45:45;;;;;;;15.00;9.43;;;;;;;4.65;70.39;100085.09;4158908;28;20042;-72
2022/12/08 09:47:58;;;;;;;17.52;10.13;;;;;;;4.69;70.46;100082.69;4164121;28;20416;-73
2022/12/08 09:50:07;;;;;;;14.75;9.32;;;;;;;4.83;70.19;100085.69;4157193;28;20558;-73